Time;durP1;ratioP1;P1;durP2;ratioP2;P2;SDS_P1;SDS_P2;PMS_P1;PMS_P2;Temp;Humidity;BMP_temperature;BMP_pressure;BME280_temperature;BME280_humidity;BME280_pressure;Samples;Min_cycle;Max_cycle;Signal;HPM_P1;HPM_P2
2022/07/23 00:00:55;;;;;;;11.43;5.70;;;;;;;;;;5117918;27;20431;-78
2022/07/23 00:03:21;;;;;;;9.00;5.63;;;14.80;99.90;;;;;;5135207;27;20406;-78
2022/07/23 00:05:47;;;;;;;8.43;5.40;;;;;;;;;;5134747;27;20433;-78
2022/07/23 00:08:13;;;;;;;9.60;5.53;;;;;;;;;;5134651;27;20394;-78
2022/07/23 00:10:39;;;;;;;7.30;5.38;;;;;;;;;;5134820;27;20811;-78
2022/07/23 00:13:05;;;;;;;8.77;6.07;;;;;;;;;;5117400;27;20418;-78
2022/07/23 00:15:31;;;;;;;10.13;6.03;;;;;;;;;;5134626;27;20882;-78
2022/07/23 00:17:57;;;;;;;9.13;5.75;;;;;;;;;;5116978;27;20390;-78
2022/07/23 00:20:23;;;;;;;9.63;5.72;;;;;;;;;;5134485;27;20395;-78
2022/07/23 00:22:51;;;;;;;10.77;5.97;;;14.00;99.90;;;;;;5134406;27;20405;-78
2022/07/23 00:25:17;;;;;;;8.20;5.83;;;;;;;;;;5134377;27;20406;-78
2022/07/23 00:27:44;;;;;;;11.38;6.10;;;;;;;;;;5134403;27;20395;-78
2022/07/23 00:30:10;;;;;;;9.93;6.03;;;;;;;;;;5134348;27;20398;-78
2022/07/23 00:32:50;;;;;;;9.45;5.82;;;14.00;99.90;;;;;;5134128;27;20452;-78
2022/07/23 00:35:18;;;;;;;9.32;6.07;;;14.10;99.90;;;;;;5118939;27;20478;-78
2022/07/23 00:37:45;;;;;;;8.57;5.95;;;;;;;;;;5136339;27;20399;-78
2022/07/23 00:40:11;;;;;;;9.88;6.32;;;;;;;;;;5134354;27;20399;-78
2022/07/23 00:42:37;;;;;;;8.30;5.88;;;;;;;;;;5117004;27;20757;-78
2022/07/23 00:45:04;;;;;;;9.32;6.00;;;;;;;;;;5134162;27;20462;-78
2022/07/23 00:47:30;;;;;;;10.57;5.90;;;;;;;;;;5133776;27;20421;-78
2022/07/23 00:49:56;;;;;;;9.13;6.15;;;;;;;;;;5118145;27;20398;-78
2022/07/23 00:52:22;;;;;;;10.15;5.65;;;;;;;;;;5136399;27;20844;-79
2022/07/23 00:54:48;;;;;;;9.02;5.68;;;;;;;;;;5136876;27;20399;-79
2022/07/23 00:57:15;;;;;;;9.50;5.72;;;;;;;;;;5134183;27;20743;-78
2022/07/23 00:59:41;;;;;;;9.15;5.53;;;;;;;;;;5134139;27;20391;-78
2022/07/23 01:02:07;;;;;;;11.00;5.90;;;;;;;;;;5133732;27;20398;-78
2022/07/23 01:04:33;;;;;;;8.77;5.38;;;;;;;;;;5116727;27;20428;-78
2022/07/23 01:06:59;;;;;;;9.68;5.40;;;;;;;;;;5116652;27;20398;-78
2022/07/23 01:09:25;;;;;;;11.88;5.90;;;;;;;;;;5116415;27;20430;-78
2022/07/23 01:11:54;;;;;;;10.88;6.20;;;13.70;99.90;;;;;;5133341;27;20430;-78
2022/07/23 01:14:20;;;;;;;11.60;6.38;;;;;;;;;;5133390;27;20402;-79
2022/07/23 01:16:47;;;;;;;11.48;6.80;;;13.80;99.90;;;;;;5133462;27;20958;-78
2022/07/23 01:19:14;;;;;;;9.35;6.20;;;13.60;99.90;;;;;;5133699;27;20455;-78
2022/07/23 01:21:45;;;;;;;9.63;6.15;;;13.60;99.90;;;;;;5102251;28;20400;-78
2022/07/23 01:24:12;;;;;;;12.00;6.10;;;13.60;99.90;;;;;;5112596;28;20457;-78
2022/07/23 01:26:39;;;;;;;7.97;5.70;;;13.60;99.90;;;;;;5114089;28;20411;-78
2022/07/23 01:29:06;;;;;;;8.23;5.60;;;;;;;;;;5111556;28;20393;-78
2022/07/23 01:31:32;;;;;;;10.30;5.93;;;;;;;;;;5113715;28;20431;-78
2022/07/23 01:33:58;;;;;;;9.85;5.90;;;;;;;;;;5110568;27;20808;-78
2022/07/23 01:36:24;;;;;;;10.18;6.03;;;;;;;;;;5132786;27;20395;-78
2022/07/23 01:38:50;;;;;;;8.40;6.17;;;13.80;99.90;;;;;;5132843;27;20395;-78
2022/07/23 01:41:17;;;;;;;9.25;5.93;;;;;;;;;;5132811;27;20399;-77
2022/07/23 01:43:43;;;;;;;10.40;6.40;;;;;;;;;;5133012;27;20469;-77
2022/07/23 01:46:09;;;;;;;9.95;5.97;;;;;;;;;;5132411;27;20490;-77
2022/07/23 01:48:35;;;;;;;9.00;6.13;;;;;;;;;;5132647;27;20394;-77
2022/07/23 01:51:01;;;;;;;10.13;5.90;;;;;;;;;;5132553;27;20414;-77
2022/07/23 01:53:28;;;;;;;9.43;5.70;;;;;;;;;;5115450;27;20450;-77
2022/07/23 01:55:54;;;;;;;8.50;5.60;;;;;;;;;;5132797;27;20441;-77
2022/07/23 01:58:20;;;;;;;11.77;6.07;;;;;;;;;;5132408;27;20394;-77
2022/07/23 02:00:46;;;;;;;9.50;5.82;;;;;;;;;;5132714;27;20866;-77
2022/07/23 02:03:12;;;;;;;8.35;5.78;;;;;;;;;;5132577;27;20731;-77
2022/07/23 02:05:38;;;;;;;10.27;6.07;;;;;;;;;;5132718;27;20395;-77
2022/07/23 02:08:04;;;;;;;7.55;5.43;;;;;;;;;;5115329;27;20402;-77
2022/07/23 02:10:30;;;;;;;9.48;6.10;;;;;;;;;;5132307;27;20950;-77
2022/07/23 02:12:57;;;;;;;9.88;6.20;;;;;;;;;;5132243;27;20926;-77
2022/07/23 02:15:23;;;;;;;9.93;6.00;;;;;;;;;;5115106;27;20402;-77
2022/07/23 02:17:49;;;;;;;9.23;5.57;;;;;;;;;;5132239;27;20405;-77
2022/07/23 02:20:15;;;;;;;9.23;6.05;;;;;;;;;;5132141;27;20426;-77
2022/07/23 02:22:41;;;;;;;11.77;5.95;;;;;;;;;;5115083;27;20455;-77
2022/07/23 02:25:08;;;;;;;10.63;6.05;;;;;;;;;;5114999;27;20399;-77
2022/07/23 02:27:34;;;;;;;9.65;6.22;;;;;;;;;;5132382;27;20406;-78
2022/07/23 02:30:00;;;;;;;11.50;5.95;;;;;;;;;;5132070;27;20403;-78
2022/07/23 02:32:27;;;;;;;8.93;5.90;;;;;;;;;;5131891;27;20422;-78
2022/07/23 02:34:53;;;;;;;8.30;5.45;;;;;;;;;;5132133;27;20430;-78
2022/07/23 02:37:19;;;;;;;8.73;5.75;;;;;;;;;;5131788;27;20398;-78
2022/07/23 02:39:45;;;;;;;10.82;5.93;;;;;;;;;;5131996;27;20760;-78
2022/07/23 02:42:11;;;;;;;10.45;5.78;;;;;;;;;;5132057;27;20865;-78
2022/07/23 02:44:37;;;;;;;8.37;5.93;;;;;;;;;;5132207;28;20425;-78
2022/07/23 02:47:03;;;;;;;9.90;5.93;;;;;;;;;;5108844;28;20780;-78
2022/07/23 02:49:29;;;;;;;9.32;6.28;;;;;;;;;;5111844;28;20453;-78
2022/07/23 02:51:55;;;;;;;8.43;5.70;;;;;;;;;;5111126;28;20472;-78
2022/07/23 02:54:21;;;;;;;15.50;7.15;;;;;;;;;;5111153;28;20436;-77
2022/07/23 02:56:47;;;;;;;8.50;6.00;;;;;;;;;;5111248;28;20910;-77
2022/07/23 02:59:13;;;;;;;9.48;6.70;;;;;;;;;;5111478;28;20756;-78
2022/07/23 03:01:40;;;;;;;11.88;6.60;;;;;;;;;;5111173;28;20487;-78
2022/07/23 03:04:06;;;;;;;11.27;6.38;;;;;;;;;;5094417;28;20462;-78
2022/07/23 03:06:32;;;;;;;11.20;6.78;;;;;;;;;;5111021;28;20406;-78
2022/07/23 03:08:58;;;;;;;9.98;6.05;;;;;;;;;;5094375;28;20756;-78
2022/07/23 03:11:24;;;;;;;9.88;6.22;;;;;;;;;;5111166;28;20511;-77
2022/07/23 03:13:50;;;;;;;9.70;6.28;;;;;;;;;;5111323;28;20427;-78
2022/07/23 03:16:16;;;;;;;9.85;6.40;;;;;;;;;;5111271;28;20400;-78
2022/07/23 03:18:42;;;;;;;9.63;6.78;;;;;;;;;;5127847;28;20735;-78
2022/07/23 03:21:08;;;;;;;8.93;6.00;;;;;;;;;;5114664;28;20792;-78
2022/07/23 03:23:34;;;;;;;8.77;6.43;;;;;;;;;;5131721;28;20394;-78
2022/07/23 03:26:00;;;;;;;10.73;6.40;;;;;;;;;;5132074;28;20460;-78
2022/07/23 03:28:26;;;;;;;11.57;6.25;;;;;;;;;;5133297;28;20430;-78
2022/07/23 03:30:52;;;;;;;11.82;6.60;;;;;;;;;;5117838;28;20402;-78
2022/07/23 03:33:21;;;;;;;8.75;6.30;;;12.50;99.90;;;;;;5119628;28;20518;-78
2022/07/23 03:35:47;;;;;;;11.77;7.15;;;;;;;;;;5124044;28;20434;-78
2022/07/23 03:38:14;;;;;;;10.30;6.40;;;;;;;;;;5094423;28;20400;-78
2022/07/23 03:40:40;;;;;;;9.50;6.68;;;;;;;;;;5111037;28;20392;-78
2022/07/23 03:43:06;;;;;;;13.02;6.70;;;;;;;;;;5110931;28;20400;-78
2022/07/23 03:45:32;;;;;;;8.80;6.30;;;;;;;;;;5110449;28;20497;-78
2022/07/23 03:47:59;;;;;;;11.02;6.50;;;;;;;;;;5126255;28;20403;-78
2022/07/23 03:50:25;;;;;;;11.77;6.75;;;;;;;;;;5131256;27;20405;-78
2022/07/23 03:52:51;;;;;;;10.25;6.50;;;;;;;;;;5139520;27;20423;-78
2022/07/23 03:55:17;;;;;;;11.65;6.50;;;;;;;;;;5140288;27;20397;-79
2022/07/23 03:57:43;;;;;;;12.03;6.80;;;;;;;;;;5134336;27;20512;-79
2022/07/23 04:00:11;;;;;;;8.93;6.55;;;12.20;99.90;;;;;;5140603;27;20801;-79
2022/07/23 04:02:37;;;;;;;9.90;6.57;;;;;;;;;;5118752;27;20425;-79
2022/07/23 04:05:04;;;;;;;8.90;6.20;;;;;;;;;;5133826;27;20428;-79
2022/07/23 04:07:30;;;;;;;10.90;6.90;;;;;;;;;;5124053;27;20403;-78
2022/07/23 04:09:56;;;;;;;11.20;7.07;;;;;;;;;;5134467;27;20414;-78
2022/07/23 04:12:23;;;;;;;11.20;6.93;;;;;;;;;;5134437;27;20430;-78
2022/07/23 04:14:49;;;;;;;10.65;7.18;;;;;;;;;;5134510;27;20398;-79
2022/07/23 04:17:15;;;;;;;11.63;7.35;;;;;;;;;;5134364;27;20478;-78
2022/07/23 04:19:43;;;;;;;9.43;7.27;;;;;;;;;;5134336;27;20390;-79
2022/07/23 04:22:09;;;;;;;10.30;7.13;;;;;;;;;;5134506;27;20406;-78
2022/07/23 04:24:35;;;;;;;12.82;7.80;;;;;;;;;;5117864;27;20824;-78
2022/07/23 04:27:02;;;;;;;11.03;7.60;;;12.20;99.90;;;;;;5134305;27;20402;-78
2022/07/23 04:29:28;;;;;;;11.23;7.28;;;;;;;;;;5134313;27;20409;-78
2022/07/23 04:31:54;;;;;;;12.00;7.40;;;;;;;;;;5134146;27;20503;-78
2022/07/23 04:34:20;;;;;;;11.65;7.40;;;;;;;;;;5134251;27;20966;-79
2022/07/23 04:36:46;;;;;;;12.83;7.70;;;;;;;;;;5134372;27;20427;-78
2022/07/23 04:39:12;;;;;;;12.43;7.35;;;;;;;;;;5133891;27;20411;-79
2022/07/23 04:41:38;;;;;;;10.68;7.10;;;;;;;;;;5134153;27;20399;-78
2022/07/23 04:44:04;;;;;;;10.90;6.97;;;;;;;;;;5132951;27;20969;-79
2022/07/23 04:46:31;;;;;;;13.38;6.43;;;;;;;;;;5127320;27;20516;-78
2022/07/23 04:48:58;;;;;;;11.32;6.80;;;12.40;99.90;;;;;;5142110;27;20485;-79
2022/07/23 04:51:24;;;;;;;11.30;6.68;;;;;;;;;;5166857;27;20424;-78
2022/07/23 04:53:51;;;;;;;10.25;6.45;;;;;;;;;;5134643;27;20430;-79
2022/07/23 04:56:17;;;;;;;11.05;7.00;;;;;;;;;;5132601;27;20422;-79
2022/07/23 04:58:43;;;;;;;11.55;6.68;;;;;;;;;;5098838;28;20403;-78
2022/07/23 05:01:09;;;;;;;10.55;6.72;;;;;;;;;;5113319;28;20396;-78
2022/07/23 05:03:35;;;;;;;10.65;7.22;;;;;;;;;;5121055;27;20410;-79
2022/07/23 05:06:02;;;;;;;10.15;6.78;;;;;;;;;;5128563;27;20424;-79
2022/07/23 05:08:29;;;;;;;11.93;6.78;;;;;;;;;;5118458;28;20408;-79
2022/07/23 05:10:55;;;;;;;9.57;6.30;;;;;;;;;;5118834;27;20457;-79
2022/07/23 05:13:21;;;;;;;9.88;6.68;;;13.00;99.90;;;;;;5137369;27;20422;-79
2022/07/23 05:15:47;;;;;;;9.43;6.32;;;;;;;;;;5132208;27;20414;-79
2022/07/23 05:18:14;;;;;;;10.90;6.13;;;;;;;;;;5134719;27;20398;-79
2022/07/23 05:20:40;;;;;;;10.10;6.30;;;;;;;;;;5141839;27;20387;-79
2022/07/23 05:23:06;;;;;;;11.95;6.38;;;;;;;;;;5131532;27;20406;-79
2022/07/23 05:25:32;;;;;;;10.57;6.13;;;;;;;;;;5134541;27;20421;-79
2022/07/23 05:27:58;;;;;;;15.10;6.40;;;;;;;;;;5117857;28;20721;-79
2022/07/23 05:30:24;;;;;;;9.43;5.97;;;;;;;;;;5115589;28;20462;-79
2022/07/23 05:32:50;;;;;;;9.63;6.35;;;;;;;;;;5115717;28;20424;-78
2022/07/23 05:35:16;;;;;;;9.90;6.10;;;;;;;;;;5113239;28;20566;-79
2022/07/23 05:37:42;;;;;;;10.77;6.15;;;;;;;;;;5114214;28;20433;-79
2022/07/23 05:40:09;;;;;;;10.40;5.93;;;13.80;99.90;;;;;;5129857;27;20403;-79
2022/07/23 05:42:39;;;;;;;10.57;6.43;;;13.90;99.90;;;;;;5109862;27;21725;-77
2022/07/23 05:45:06;;;;;;;9.70;5.90;;;;;;;;;;5130013;27;20439;-77
2022/07/23 05:47:46;;;;;;;9.40;5.70;;;14.00;99.90;;;;;;5122594;27;20418;-77
2022/07/23 05:50:13;;;;;;;11.70;5.80;;;14.00;99.90;;;;;;5132406;27;20418;-77
2022/07/23 05:52:40;;;;;;;10.43;5.60;;;14.20;99.90;;;;;;5132363;27;20422;-77
2022/07/23 05:55:07;;;;;;;9.13;5.75;;;14.30;99.90;;;;;;5132487;27;20417;-77
2022/07/23 05:57:33;;;;;;;7.80;4.80;;;;;;;;;;5128457;27;20481;-77
2022/07/23 05:59:59;;;;;;;7.70;4.90;;;;;;;;;;5120016;27;20412;-77
2022/07/23 06:02:25;;;;;;;8.50;4.90;;;;;;;;;;5111625;28;20457;-77
2022/07/23 06:04:51;;;;;;;12.80;4.90;;;;;;;;;;5113388;27;20422;-77
2022/07/23 06:07:17;;;;;;;8.27;4.30;;;15.20;99.90;;;;;;5127221;27;20410;-78
2022/07/23 06:09:43;;;;;;;6.40;4.15;;;;;;;;;;5103629;27;20767;-78
2022/07/23 06:12:09;;;;;;;12.30;3.97;;;;;;;;;;5123147;27;20850;-77
2022/07/23 06:14:35;;;;;;;4.07;2.80;;;;;;;;;;5110446;28;20917;-77
2022/07/23 06:17:01;;;;;;;6.15;3.00;;;;;;;;;;5117751;27;20479;-77
2022/07/23 06:19:27;;;;;;;4.85;2.40;;;;;;;;;;5127604;27;20427;-78
2022/07/23 06:21:53;;;;;;;5.55;2.70;;;;;;;;;;5112170;27;20406;-78
2022/07/23 06:24:19;;;;;;;4.85;2.38;;;;;;;;;;5114637;27;20425;-78
2022/07/23 06:26:45;;;;;;;4.43;2.10;;;16.20;99.90;;;;;;5114351;27;20424;-78
2022/07/23 06:29:11;;;;;;;4.80;2.25;;;;;;;;;;5117624;27;20764;-77
2022/07/23 06:31:37;;;;;;;7.03;2.13;;;15.90;99.90;;;;;;5110449;28;20437;-77
2022/07/23 06:34:03;;;;;;;4.07;1.98;;;;;;;;;;5110608;28;20408;-78
2022/07/23 06:36:29;;;;;;;4.07;2.20;;;;;;;;;;5116735;27;20418;-77
2022/07/23 06:38:55;;;;;;;4.37;2.10;;;;;;;;;;5110690;27;20920;-77
2022/07/23 06:41:22;;;;;;;3.63;2.00;;;;;;;;;;5111440;27;20431;-77
2022/07/23 06:43:48;;;;;;;4.10;1.77;;;;;;;;;;5110790;28;20400;-77
2022/07/23 06:46:14;;;;;;;7.72;1.67;;;;;;;;;;5114689;28;20422;-77
2022/07/23 06:48:40;;;;;;;4.50;1.70;;;;;;;;;;5129266;28;20426;-77
2022/07/23 06:51:06;;;;;;;3.58;1.50;;;16.30;99.90;;;;;;5113848;27;20416;-77
2022/07/23 06:53:32;;;;;;;3.23;1.50;;;;;;;;;;5112694;27;20414;-77
2022/07/23 06:55:58;;;;;;;4.03;1.38;;;;;;;;;;5129659;28;20459;-77
2022/07/23 06:58:24;;;;;;;3.03;1.30;;;16.80;99.90;;;;;;5122090;28;20414;-77
2022/07/23 07:00:51;;;;;;;4.00;1.80;;;;;;;;;;5128140;27;20437;-77
2022/07/23 07:03:18;;;;;;;3.95;1.20;;;;;;;;;;5129099;28;20438;-77
2022/07/23 07:05:44;;;;;;;6.32;1.33;;;;;;;;;;5130892;28;20402;-76
2022/07/23 07:08:09;;;;;;;5.82;1.42;;;17.20;99.90;;;;;;5119168;27;20754;-76
2022/07/23 07:10:35;;;;;;;2.90;1.20;;;;;;;;;;5123993;27;20428;-79
2022/07/23 07:13:02;;;;;;;3.78;1.30;;;;;;;;;;5111912;28;20419;-78
2022/07/23 07:15:27;;;;;;;2.70;1.30;;;17.10;99.90;;;;;;5127929;27;20834;-79
2022/07/23 07:17:53;;;;;;;3.63;1.40;;;17.60;99.90;;;;;;5110124;28;20461;-78
2022/07/23 07:20:19;;;;;;;1.88;1.20;;;17.60;99.90;;;;;;5099966;27;20914;-81
2022/07/23 07:22:45;;;;;;;5.32;1.30;;;;;;;;;;5125090;27;20422;-79
2022/07/23 07:25:10;;;;;;;3.25;1.20;;;17.70;99.90;;;;;;5094785;28;20424;-79
2022/07/23 07:27:36;;;;;;;3.58;1.30;;;;;;;;;;5108990;27;20490;-80
2022/07/23 07:30:04;;;;;;;3.13;1.25;;;17.90;99.90;;;;;;5100942;27;20727;-79
2022/07/23 07:32:32;;;;;;;3.65;1.13;;;17.80;99.90;;;;;;5114919;27;20434;-80
2022/07/23 07:34:58;;;;;;;2.45;1.10;;;17.90;99.90;;;;;;5135843;27;20441;-79
2022/07/23 07:37:24;;;;;;;2.40;1.10;;;;;;;;;;5156092;27;20417;-79
2022/07/23 07:39:50;;;;;;;2.20;1.10;;;18.20;99.90;;;;;;5128895;27;20455;-80
2022/07/23 07:42:15;;;;;;;3.03;0.90;;;17.90;99.90;;;;;;5137195;27;20431;-81
2022/07/23 07:44:41;;;;;;;2.05;0.80;;;18.10;99.90;;;;;;5131358;27;20484;-80
2022/07/23 07:47:07;;;;;;;1.42;0.90;;;;;;;;;;5089957;27;20786;-81
2022/07/23 07:49:33;;;;;;;2.75;0.90;;;;;;;;;;5119807;27;20425;-81
2022/07/23 07:51:59;;;;;;;2.58;0.93;;;18.80;99.90;;;;;;5126970;27;20426;-81
2022/07/23 07:54:25;;;;;;;1.50;0.90;;;;;;;;;;5132465;27;20464;-81
2022/07/23 07:56:51;;;;;;;1.52;0.80;;;;;;;;;;5131099;27;20499;-82
2022/07/23 07:59:17;;;;;;;1.00;0.60;;;;;;;;;;5131352;27;20416;-82
2022/07/23 08:01:43;;;;;;;1.92;0.80;;;;;;;;;;5109520;27;20442;-79
2022/07/23 08:04:09;;;;;;;2.20;0.95;;;;;;;;;;5108074;27;20418;-80
2022/07/23 08:06:36;;;;;;;0.93;0.70;;;;;;;;;;5104437;27;20420;-81
2022/07/23 08:09:02;;;;;;;0.90;0.70;;;;;;;;;;5120537;27;20458;-79
2022/07/23 08:11:28;;;;;;;1.27;0.80;;;;;;;;;;5129658;27;20482;-81
2022/07/23 08:13:54;;;;;;;2.15;0.88;;;;;;;;;;5106813;27;20452;-81
2022/07/23 08:16:20;;;;;;;2.50;0.90;;;;;;;;;;5127453;27;20440;-79
2022/07/23 08:18:46;;;;;;;3.05;1.00;;;19.40;99.90;;;;;;5120528;27;20938;-78
2022/07/23 08:21:12;;;;;;;1.92;0.80;;;19.10;99.90;;;;;;5134519;27;20509;-78
2022/07/23 08:23:38;;;;;;;1.83;1.10;;;;;;;;;;5118283;27;20384;-77
2022/07/23 08:26:04;;;;;;;1.65;1.00;;;;;;;;;;5113939;28;20458;-78
2022/07/23 08:28:32;;;;;;;1.93;1.00;;;19.30;99.90;;;;;;5133351;27;20398;-77
2022/07/23 08:30:59;;;;;;;3.63;1.00;;;;;;;;;;5135736;27;20387;-77
2022/07/23 08:33:25;;;;;;;2.20;0.80;;;;;;;;;;5108173;28;20412;-77
2022/07/23 08:35:52;;;;;;;1.85;0.80;;;;;;;;;;5096820;28;20407;-77
2022/07/23 08:38:19;;;;;;;1.40;0.80;;;;;;;;;;5114474;28;20415;-77
2022/07/23 08:40:47;;;;;;;2.40;0.90;;;;;;;;;;5118757;27;20440;-77
2022/07/23 08:43:14;;;;;;;0.98;0.80;;;;;;;;;;5135264;27;20391;-77
2022/07/23 08:45:44;;;;;;;2.90;1.40;;;;;;;;;;5116435;27;20417;-78
2022/07/23 08:48:29;;;;;;;2.15;1.00;;;;;;;;;;5134909;27;20394;-77
2022/07/23 08:50:56;;;;;;;2.53;1.10;;;;;;;;;;5098737;28;20415;-78
2022/07/23 08:53:23;;;;;;;2.95;1.00;;;;;;;;;;5113176;28;20473;-77
2022/07/23 08:55:54;;;;;;;2.75;1.00;;;;;;;;;;5096632;28;20477;-78
2022/07/23 08:58:21;;;;;;;2.13;1.08;;;;;;;;;;5114816;27;20749;-77
2022/07/23 09:00:48;;;;;;;1.98;0.90;;;;;;;;;;5134799;27;20399;-78
2022/07/23 09:03:17;;;;;;;2.25;1.02;;;;;;;;;;5133279;27;20405;-78
2022/07/23 09:05:43;;;;;;;3.00;1.10;;;;;;;;;;5117752;27;20409;-78
2022/07/23 09:08:13;;;;;;;3.80;1.00;;;;;;;;;;5134803;27;20886;-78
2022/07/23 09:10:53;;;;;;;1.77;1.00;;;;;;;;;;5123286;27;20428;-78
2022/07/23 09:13:39;;;;;;;3.00;1.00;;;;;;;;;;5134633;27;20457;-78
2022/07/23 09:16:06;;;;;;;1.90;0.90;;;;;;;;;;5116401;27;20904;-78
2022/07/23 09:18:38;;;;;;;1.60;0.90;;;;;;;;;;5115558;27;20430;-77
2022/07/23 09:21:07;;;;;;;2.58;1.10;;;;;;;;;;5108166;27;20403;-78
2022/07/23 09:23:51;;;;;;;2.50;1.10;;;;;;;;;;5104680;28;20417;-78
2022/07/23 09:26:19;;;;;;;2.05;1.20;;;;;;;;;;5128316;27;20748;-78
2022/07/23 09:28:50;;;;;;;1.77;0.93;;;;;;;;;;5133900;27;20967;-78
2022/07/23 09:31:16;;;;;;;3.72;1.20;;;;;;;;;;5125357;27;20773;-78
2022/07/23 09:33:42;;;;;;;3.42;1.20;;;;;;;;;;5107669;27;20431;-79
2022/07/23 09:36:09;;;;;;;2.13;1.02;;;;;;;;;;5125705;27;20408;-79
2022/07/23 09:38:47;;;;;;;3.55;1.30;;;;;;;;;;5091308;28;20484;-80
2022/07/23 09:41:13;;;;;;;5.10;1.23;;;;;;;;;;5105004;27;20420;-80
2022/07/23 09:43:39;;;;;;;4.13;1.00;;;20.20;99.90;;;;;;5107277;28;20423;-80
2022/07/23 09:46:19;;;;;;;2.95;1.10;;;;;;;;;;5112761;27;20415;-80
2022/07/23 09:48:45;;;;;;;2.35;1.10;;;;;;;;;;5115858;27;20424;-80
2022/07/23 09:51:13;;;;;;;2.20;1.00;;;;;;;;;;5126803;27;20427;-81
2022/07/23 09:53:39;;;;;;;3.05;1.20;;;;;;;;;;5123758;27;20448;-82
2022/07/23 09:56:06;;;;;;;3.30;1.42;;;;;;;;;;5114296;27;20425;-79
2022/07/23 09:58:31;;;;;;;2.67;1.10;;;21.10;99.90;;;;;;5129345;27;20419;-76
2022/07/23 10:00:58;;;;;;;2.50;1.20;;;21.00;99.90;;;;;;5114058;27;20403;-76
2022/07/23 10:03:24;;;;;;;2.17;1.10;;;;;;;;;;5123997;27;20433;-76
2022/07/23 10:05:51;;;;;;;2.70;1.30;;;21.10;99.90;;;;;;5110004;27;20431;-76
2022/07/23 10:08:19;;;;;;;3.88;1.20;;;21.40;99.90;;;;;;5123158;27;20422;-76
2022/07/23 10:10:46;;;;;;;2.60;1.13;;;21.60;99.90;;;;;;5118871;27;20408;-76
2022/07/23 10:15:58;;;;;;;3.03;1.07;;;;;;;;;;5112622;27;20411;-76
2022/07/23 10:18:25;;;;;;;2.67;1.10;;;21.10;99.90;;;;;;5126997;27;20463;-76
2022/07/23 10:20:51;;;;;;;2.63;1.10;;;20.90;99.90;;;;;;5129212;27;20438;-75
2022/07/23 10:23:16;;;;;;;3.53;1.20;;;20.70;99.90;;;;;;5122720;27;20414;-75
2022/07/23 10:25:55;;;;;;;3.20;1.17;;;20.70;99.90;;;;;;5126056;27;20782;-74
2022/07/23 10:28:26;;;;;;;2.35;1.20;;;20.70;99.90;;;;;;5106383;27;20481;-75
2022/07/23 10:31:28;;;;;;;4.38;1.45;;;20.90;99.90;;;;;;5115364;27;20996;-76
2022/07/23 10:34:17;;;;;;;3.17;1.30;;;20.80;99.90;;;;;;5117928;27;20817;-76
2022/07/23 10:36:58;;;;;;;2.53;1.30;;;;;;;;;;5121783;27;20469;-76
2022/07/23 10:39:32;;;;;;;3.97;1.33;;;20.90;99.90;;;;;;5120854;27;20919;-76
2022/07/23 10:42:09;;;;;;;2.90;1.40;;;21.00;99.90;;;;;;5125057;27;20743;-77
2022/07/23 10:44:43;;;;;;;3.85;1.30;;;21.00;99.90;;;;;;5125737;27;20983;-77
2022/07/23 10:49:48;;;;;;;3.20;1.40;;;21.10;99.90;;;;;;5124209;28;20423;-77
2022/07/23 10:52:14;;;;;;;2.92;1.40;;;21.10;99.90;;;;;;5116863;27;20424;-77
2022/07/23 10:54:51;;;;;;;2.22;1.10;;;21.10;99.90;;;;;;5115840;28;20419;-77
2022/07/23 10:57:19;;;;;;;4.78;1.52;;;21.60;99.90;;;;;;5087958;28;20485;-77
2022/07/23 11:00:12;;;;;;;3.22;1.30;;;21.50;99.90;;;;;;5115497;27;20745;-77
2022/07/23 11:02:39;;;;;;;4.55;1.40;;;21.80;99.90;;;;;;5123305;27;20527;-77
2022/07/23 11:05:10;;;;;;;2.90;1.40;;;21.90;99.90;;;;;;5112736;27;20486;-77
2022/07/23 11:07:57;;;;;;;2.65;1.30;;;21.80;99.90;;;;;;5124398;27;20493;-78
2022/07/23 11:10:38;;;;;;;3.22;1.50;;;21.70;99.90;;;;;;5115065;27;20430;-76
2022/07/23 11:13:23;;;;;;;5.72;1.60;;;;;;;;;;5117549;27;20423;-77
2022/07/23 11:16:01;;;;;;;2.67;1.70;;;;;;;;;;5115125;27;20502;-76
2022/07/23 11:18:42;;;;;;;4.00;1.80;;;21.70;99.90;;;;;;5123645;27;20485;-77
2022/07/23 11:21:23;;;;;;;2.97;1.50;;;21.50;99.90;;;;;;5130312;27;20414;-77
2022/07/23 11:24:06;;;;;;;3.50;1.90;;;21.80;99.90;;;;;;5109775;27;20896;-77
2022/07/23 11:26:39;;;;;;;5.47;1.95;;;21.70;99.90;;;;;;5139114;27;20912;-77
2022/07/23 11:29:41;;;;;;;4.07;1.75;;;;;;;;;;5122824;27;20897;-77
2022/07/23 11:32:35;;;;;;;5.07;1.60;;;22.30;99.90;;;;;;5068346;27;20925;-76
2022/07/23 11:35:02;;;;;;;3.45;1.67;;;22.20;99.90;;;;;;5123679;27;20501;-77
2022/07/23 11:37:39;;;;;;;4.00;1.80;;;22.20;99.90;;;;;;5117171;27;20408;-76
2022/07/23 11:40:14;;;;;;;5.00;1.60;;;22.40;99.90;;;;;;5119744;27;20911;-76
2022/07/23 11:42:52;;;;;;;3.20;1.65;;;22.30;99.90;;;;;;5124327;27;20410;-76
2022/07/23 11:45:18;;;;;;;3.97;1.77;;;22.00;99.90;;;;;;5128228;27;20441;-76
2022/07/23 11:47:44;;;;;;;3.80;1.80;;;;;;;;;;5105654;27;20410;-77
2022/07/23 11:50:10;;;;;;;3.25;1.67;;;22.60;99.90;;;;;;5127869;27;20502;-77
2022/07/23 11:52:40;;;;;;;3.88;1.90;;;22.80;99.90;;;;;;5117364;27;20464;-76
2022/07/23 11:55:08;;;;;;;4.20;1.92;;;23.10;99.90;;;;;;5134069;27;20958;-76
2022/07/23 11:57:37;;;;;;;5.25;2.15;;;22.90;99.90;;;;;;5131630;27;21145;-76
2022/07/23 12:00:10;;;;;;;4.25;1.80;;;22.50;99.90;;;;;;5118614;27;20424;-77
2022/07/23 12:02:38;;;;;;;5.28;1.80;;;22.40;99.90;;;;;;5131063;27;20414;-77
2022/07/23 12:05:05;;;;;;;2.92;1.85;;;22.70;99.90;;;;;;5137407;27;20418;-75
2022/07/23 12:07:39;;;;;;;3.67;2.00;;;22.70;99.90;;;;;;5134800;27;20440;-75
2022/07/23 12:10:15;;;;;;;2.65;1.77;;;22.70;99.90;;;;;;5114896;27;20443;-75
2022/07/23 12:13:10;;;;;;;3.30;2.00;;;22.50;99.90;;;;;;5122956;27;20424;-76
2022/07/23 12:15:47;;;;;;;3.97;2.50;;;23.10;99.90;;;;;;5119507;27;20490;-76
2022/07/23 12:18:25;;;;;;;4.80;2.30;;;22.70;99.90;;;;;;5119981;27;20414;-76
2022/07/23 12:20:58;;;;;;;3.88;1.90;;;23.00;99.90;;;;;;5119301;27;20512;-76
2022/07/23 12:23:25;;;;;;;3.22;1.70;;;23.10;99.90;;;;;;5131337;27;20409;-76
2022/07/23 12:25:52;;;;;;;3.10;1.70;;;23.20;99.90;;;;;;5128711;27;20450;-76
2022/07/23 12:28:21;;;;;;;3.83;1.80;;;23.70;99.90;;;;;;5098379;27;20763;-76
2022/07/23 12:30:52;;;;;;;3.78;1.63;;;23.80;99.90;;;;;;5127794;27;20423;-76
2022/07/23 12:33:30;;;;;;;4.70;1.87;;;24.10;99.90;;;;;;5134548;27;20410;-76
2022/07/23 12:35:58;;;;;;;4.10;1.60;;;23.80;99.90;;;;;;5121546;27;20459;-77
2022/07/23 12:38:36;;;;;;;3.97;1.80;;;23.90;99.90;;;;;;5134683;27;20403;-76
2022/07/23 12:41:02;;;;;;;4.50;2.03;;;23.40;99.90;;;;;;5129636;27;20414;-75
2022/07/23 12:43:47;;;;;;;4.03;2.00;;;23.10;99.90;;;;;;5134091;27;20387;-74
2022/07/23 12:46:22;;;;;;;2.93;1.60;;;23.00;99.90;;;;;;5121593;27;20440;-75
2022/07/23 12:48:50;;;;;;;3.85;1.85;;;22.70;99.90;;;;;;5129487;27;20868;-75
2022/07/23 12:51:25;;;;;;;3.05;1.80;;;23.00;99.90;;;;;;5131927;27;20422;-75
2022/07/23 12:53:57;;;;;;;3.15;1.73;;;22.70;99.90;;;;;;5132048;27;20398;-75
2022/07/23 12:56:35;;;;;;;3.63;1.60;;;22.80;99.90;;;;;;5127364;27;20410;-75
2022/07/23 12:59:03;;;;;;;3.60;1.70;;;22.80;99.90;;;;;;5122410;27;20412;-76
2022/07/23 13:01:32;;;;;;;4.53;1.88;;;23.00;99.90;;;;;;5113108;27;20426;-75
2022/07/23 13:04:14;;;;;;;3.13;1.70;;;20.80;99.90;;;;;;5113704;27;20737;-75
2022/07/23 13:06:51;;;;;;;3.33;1.90;;;23.20;99.90;;;;;;5126255;27;20419;-75
2022/07/23 13:09:35;;;;;;;6.60;1.98;;;23.10;99.90;;;;;;5130676;27;20449;-74
2022/07/23 13:12:01;;;;;;;5.30;1.77;;;23.40;99.90;;;;;;5125871;27;20461;-75
2022/07/23 13:14:27;;;;;;;3.13;1.50;;;22.90;99.90;;;;;;5132442;27;20917;-74
2022/07/23 13:16:54;;;;;;;3.67;1.80;;;22.90;99.90;;;;;;5120416;27;20412;-75
2022/07/23 13:19:23;;;;;;;3.15;1.67;;;23.10;99.90;;;;;;5113198;27;20404;-75
2022/07/23 13:21:49;;;;;;;4.50;1.80;;;23.50;99.90;;;;;;5114926;27;20402;-75
2022/07/23 13:24:15;;;;;;;3.30;1.70;;;23.80;99.90;;;;;;5131379;27;20405;-75
2022/07/23 13:26:41;;;;;;;3.90;1.70;;;24.00;99.90;;;;;;5092267;27;20421;-75
2022/07/23 13:29:07;;;;;;;3.20;1.60;;;24.20;99.90;;;;;;5113373;27;20416;-75
2022/07/23 13:31:33;;;;;;;3.30;1.60;;;24.40;99.90;;;;;;5123310;27;20410;-75
2022/07/23 13:33:59;;;;;;;3.33;1.65;;;24.80;99.90;;;;;;5113551;27;20454;-75
2022/07/23 13:36:25;;;;;;;4.43;1.77;;;25.30;99.90;;;;;;5114130;27;20438;-75
2022/07/23 13:38:50;;;;;;;4.27;1.80;;;25.50;99.90;;;;;;5133794;27;20431;-75
2022/07/23 13:41:17;;;;;;;3.03;1.77;;;24.50;99.90;;;;;;5130897;27;20406;-75
2022/07/23 13:43:44;;;;;;;3.28;1.80;;;25.30;99.90;;;;;;5112375;27;20422;-75
2022/07/23 13:46:09;;;;;;;3.38;1.77;;;24.70;99.90;;;;;;5113440;27;20407;-75
2022/07/23 13:48:35;;;;;;;5.72;2.13;;;24.70;99.90;;;;;;5133312;27;20531;-75
2022/07/23 13:51:01;;;;;;;3.00;1.70;;;24.40;99.90;;;;;;5131574;27;20406;-76
2022/07/23 13:53:27;;;;;;;4.55;1.70;;;24.80;99.90;;;;;;5125139;27;20498;-76
2022/07/23 13:55:54;;;;;;;4.05;1.70;;;24.70;99.90;;;;;;5114098;27;20506;-75
2022/07/23 13:58:20;;;;;;;3.70;1.83;;;24.50;99.90;;;;;;5130078;27;20418;-75
2022/07/23 14:00:50;;;;;;;4.72;1.90;;;24.60;99.90;;;;;;5114573;27;20539;-76
2022/07/23 14:03:17;;;;;;;3.30;1.70;;;24.60;99.90;;;;;;5126819;27;20412;-75